Time;durP1;ratioP1;P1;durP2;ratioP2;P2;SDS_P1;SDS_P2;PMS_P1;PMS_P2;Temp;Humidity;BMP_temperature;BMP_pressure;BME280_temperature;BME280_humidity;BME280_pressure;Samples;Min_cycle;Max_cycle;Signal;HPM_P1;HPM_P2
2023/12/21 00:00:34;;;;;;;18.55;3.00;;;;;;;11.18;95.65;101195.53;5052069;28;20052;-62
2023/12/21 00:03:01;;;;;;;21.40;3.60;;;;;;;11.12;96.91;101194.03;5017373;28;20052;-62
2023/12/21 00:05:29;;;;;;;13.43;3.00;;;;;;;11.02;97.68;101195.00;5050981;28;20049;-62
2023/12/21 00:07:56;;;;;;;13.60;2.20;;;;;;;11.05;98.24;101197.16;5054253;28;20053;-62
2023/12/21 00:10:24;;;;;;;18.10;3.03;;;;;;;11.13;97.66;101188.19;5036044;28;20049;-66
2023/12/21 00:12:51;;;;;;;11.65;1.83;;;;;;;11.10;98.02;101188.00;5055368;28;20064;-62
2023/12/21 00:15:18;;;;;;;10.25;2.38;;;;;;;11.14;97.31;101194.53;5036409;28;20052;-62
2023/12/21 00:17:46;;;;;;;14.30;2.53;;;;;;;10.88;99.95;101177.66;5036682;28;20064;-62
2023/12/21 00:20:14;;;;;;;15.80;2.88;;;;;;;10.94;99.97;101175.59;5055496;28;20049;-61
2023/12/21 00:22:41;;;;;;;13.80;2.75;;;;;;;11.00;100.00;101186.22;5055806;28;20064;-62
2023/12/21 00:25:08;;;;;;;13.68;2.85;;;;;;;11.06;99.88;101168.47;5055131;28;20048;-63
2023/12/21 00:27:36;;;;;;;13.93;2.67;;;;;;;10.94;100.00;101168.16;5054436;28;20060;-62
2023/12/21 00:30:04;;;;;;;12.80;2.55;;;;;;;10.91;100.00;101159.69;5055567;28;20044;-62
2023/12/21 00:32:31;;;;;;;10.50;2.22;;;;;;;10.83;100.00;101154.88;5054686;28;20078;-62
2023/12/21 00:34:58;;;;;;;14.63;2.95;;;;;;;10.73;100.00;101144.88;5054845;28;20048;-61
2023/12/21 00:37:26;;;;;;;14.23;2.90;;;;;;;10.94;100.00;101159.06;5037564;28;20411;-63
2023/12/21 00:39:53;;;;;;;16.48;2.45;;;;;;;11.13;100.00;101146.84;5037382;28;20045;-62
2023/12/21 00:42:20;;;;;;;14.25;2.33;;;;;;;11.17;100.00;101141.53;5037381;28;20496;-63
2023/12/21 00:44:48;;;;;;;11.52;2.33;;;;;;;10.90;100.00;101128.56;5053742;28;20045;-62
2023/12/21 00:47:15;;;;;;;14.07;3.03;;;;;;;11.14;100.00;101142.16;5041615;28;20060;-62
2023/12/21 00:49:43;;;;;;;15.55;2.83;;;;;;;11.03;100.00;101130.50;5054553;28;20048;-62
2023/12/21 00:52:10;;;;;;;15.88;2.45;;;;;;;10.84;100.00;101140.81;5054876;28;20057;-61
2023/12/21 00:54:37;;;;;;;20.40;3.17;;;;;;;10.95;100.00;101138.66;5036590;28;20536;-62
2023/12/21 00:57:05;;;;;;;18.98;3.42;;;;;;;10.94;100.00;101121.31;5001380;28;20059;-62
2023/12/21 00:59:34;;;;;;;19.45;3.22;;;;;;;10.97;100.00;101114.34;5034701;28;20056;-64
2023/12/21 01:02:02;;;;;;;13.40;2.88;;;;;;;11.04;100.00;101107.31;5033630;28;20669;-62
2023/12/21 01:04:29;;;;;;;16.00;3.08;;;;;;;10.83;100.00;101106.09;5042014;28;20041;-62
2023/12/21 01:06:57;;;;;;;13.85;3.10;;;;;;;10.86;100.00;101107.44;5036830;28;20044;-63
2023/12/21 01:09:24;;;;;;;8.90;2.28;;;;;;;10.86;100.00;101119.25;5036183;28;20052;-61
2023/12/21 01:11:52;;;;;;;13.52;2.85;;;;;;;11.09;100.00;101111.91;5003540;28;20049;-62
2023/12/21 01:14:19;;;;;;;17.27;3.03;;;;;;;10.86;100.00;101122.00;5019725;28;20616;-61
2023/12/21 01:16:46;;;;;;;17.20;3.88;;;;;;;10.85;100.00;101103.03;5052508;28;20547;-62
2023/12/21 01:19:14;;;;;;;16.67;2.85;;;;;;;10.74;100.00;101093.34;5028271;28;20065;-63
2023/12/21 01:21:41;;;;;;;14.27;3.15;;;;;;;11.03;100.00;101091.91;5038054;28;20045;-61
2023/12/21 01:24:08;;;;;;;16.52;3.20;;;;;;;11.14;100.00;101103.56;5053938;28;20057;-61
2023/12/21 01:26:35;;;;;;;18.15;2.95;;;;;;;11.13;99.54;101093.63;5019964;28;20057;-61
2023/12/21 01:29:03;;;;;;;15.13;3.05;;;;;;;11.15;100.00;101078.44;5036308;28;20052;-62
2023/12/21 01:31:30;;;;;;;18.38;2.90;;;;;;;11.22;100.00;101080.75;5035958;28;20048;-62
2023/12/21 01:33:57;;;;;;;15.65;2.95;;;;;;;11.06;100.00;101077.50;5054179;28;20041;-61
2023/12/21 01:36:28;;;;;;;16.10;2.83;;;;;;;11.03;100.00;101075.38;5054414;28;20063;-62
2023/12/21 01:38:58;;;;;;;11.90;2.65;;;;;;;11.06;100.00;101068.41;5054459;28;20057;-62
2023/12/21 01:41:25;;;;;;;12.48;2.55;;;;;;;11.18;100.00;101077.81;5036600;28;20049;-62
2023/12/21 01:43:53;;;;;;;17.65;2.63;;;;;;;10.86;100.00;101069.66;5054248;28;20060;-61
2023/12/21 01:46:23;;;;;;;11.15;2.22;;;;;;;10.75;100.00;101048.94;5042475;28;20060;-62
2023/12/21 01:48:51;;;;;;;;;;;;;;;10.94;100.00;101059.84;5053974;28;20040;-61
2023/12/21 01:51:19;;;;;;;13.65;2.38;;;;;;;11.06;100.00;101051.88;5036832;28;20185;-61
2023/12/21 01:53:48;;;;;;;13.27;2.20;;;;;;;11.06;100.00;101052.69;5054038;28;20049;-61
2023/12/21 01:56:15;;;;;;;14.55;2.78;;;;;;;11.30;100.00;101030.38;5036082;28;20064;-62
2023/12/21 01:58:43;;;;;;;13.13;2.55;;;;;;;11.18;100.00;101041.97;5053708;28;20053;-60
2023/12/21 02:01:10;;;;;;;11.18;2.40;;;;;;;11.05;100.00;101030.97;5036074;28;20049;-62
2023/12/21 02:03:39;;;;;;;12.90;2.47;;;;;;;11.01;100.00;101019.75;5053109;28;20045;-61
2023/12/21 02:06:06;;;;;;;10.82;2.33;;;;;;;10.98;100.00;101027.81;5054106;28;20048;-61
2023/12/21 02:08:34;;;;;;;9.07;1.90;;;;;;;10.95;100.00;101026.47;5053752;28;20049;-63
2023/12/21 02:11:06;;;;;;;11.18;1.98;;;;;;;10.80;100.00;101007.50;5035780;28;20419;-63
2023/12/21 02:13:34;;;;;;;11.60;2.13;;;;;;;10.83;100.00;101009.66;5034759;28;20052;-62
2023/12/21 02:16:12;;;;;;;11.13;1.95;;;;;;;11.28;100.00;101014.16;5036539;28;20135;-62
2023/12/21 02:18:40;;;;;;;9.23;2.15;;;;;;;11.26;100.00;101012.84;5036060;28;20053;-62
2023/12/21 02:21:09;;;;;;;9.63;1.98;;;;;;;11.18;100.00;101003.34;5019919;28;20519;-61
2023/12/21 02:23:37;;;;;;;9.90;1.80;;;;;;;11.15;100.00;100995.72;5035496;28;20060;-61
2023/12/21 02:26:04;;;;;;;10.15;2.25;;;;;;;11.10;100.00;100998.59;5048236;28;20396;-63
2023/12/21 02:28:31;;;;;;;8.20;1.92;;;;;;;10.99;100.00;100994.41;5019336;28;20041;-62
2023/12/21 02:30:58;;;;;;;7.53;1.92;;;;;;;10.88;100.00;100989.44;5035267;28;20041;-62
2023/12/21 02:33:26;;;;;;;9.40;2.17;;;;;;;10.98;100.00;101000.25;5015731;28;20061;-62
2023/12/21 02:35:54;;;;;;;11.32;2.40;;;;;;;11.05;100.00;101000.66;5015351;28;20049;-62
2023/12/21 02:38:23;;;;;;;11.55;2.20;;;;;;;10.92;100.00;101005.06;5033494;28;20056;-61
2023/12/21 02:40:50;;;;;;;12.30;1.95;;;;;;;10.97;100.00;101004.09;5015210;28;20136;-61
2023/12/21 02:43:18;;;;;;;7.28;1.60;;;;;;;10.89;100.00;100993.81;5015388;28;20053;-61
2023/12/21 02:45:45;;;;;;;7.53;1.65;;;;;;;11.23;100.00;100991.38;5004297;28;20712;-61
2023/12/21 02:48:12;;;;;;;8.48;1.80;;;;;;;11.05;100.00;100995.91;5017838;28;20053;-62
2023/12/21 02:50:40;;;;;;;6.10;1.48;;;;;;;11.17;100.00;100987.97;5025763;28;20068;-62
2023/12/21 02:53:07;;;;;;;8.80;1.38;;;;;;;11.36;100.00;100979.50;5031947;28;20045;-61
2023/12/21 02:55:35;;;;;;;8.38;1.42;;;;;;;11.35;100.00;100977.84;5014709;28;20045;-62
2023/12/21 02:58:03;;;;;;;11.05;2.10;;;;;;;11.37;100.00;100977.56;5031634;28;20053;-61
2023/12/21 03:00:30;;;;;;;10.18;1.45;;;;;;;11.38;100.00;100978.06;5028908;28;20056;-62
2023/12/21 03:02:57;;;;;;;7.93;1.33;;;;;;;11.27;100.00;100973.94;5052679;28;20053;-62
2023/12/21 03:05:25;;;;;;;5.00;1.23;;;;;;;11.25;100.00;100975.34;5034429;28;20049;-62
2023/12/21 03:07:54;;;;;;;7.28;1.42;;;;;;;11.13;100.00;100967.63;5047496;28;20049;-62
2023/12/21 03:10:21;;;;;;;4.20;1.20;;;;;;;11.07;100.00;100970.81;5031485;28;20049;-62
2023/12/21 03:12:48;;;;;;;9.13;1.58;;;;;;;10.96;100.00;100964.72;4997381;28;20506;-62
2023/12/21 03:15:16;;;;;;;5.47;1.15;;;;;;;11.08;100.00;100964.19;5034078;28;20049;-62
2023/12/21 03:17:43;;;;;;;9.05;1.67;;;;;;;11.04;100.00;100958.47;5034725;28;20053;-61
2023/12/21 03:20:11;;;;;;;4.53;1.00;;;;;;;11.03;100.00;100959.59;5000960;28;20528;-62
2023/12/21 03:22:38;;;;;;;4.40;0.90;;;;;;;10.99;100.00;100955.00;5034608;28;20040;-62
2023/12/21 03:25:06;;;;;;;3.47;0.95;;;;;;;11.15;100.00;100959.06;5017026;28;20049;-62
2023/12/21 03:27:34;;;;;;;5.57;1.33;;;;;;;11.21;100.00;100957.78;5052620;28;20060;-62
2023/12/21 03:30:02;;;;;;;7.95;1.20;;;;;;;11.20;100.00;100961.69;5052291;28;20045;-62
2023/12/21 03:32:30;;;;;;;2.72;0.85;;;;;;;11.29;100.00;100946.84;5034074;28;20041;-62
2023/12/21 03:34:57;;;;;;;6.68;1.05;;;;;;;11.24;100.00;100938.69;5051611;28;20044;-61
2023/12/21 03:37:27;;;;;;;6.20;1.08;;;;;;;11.10;100.00;100934.38;5034699;28;20064;-63
2023/12/21 03:39:55;;;;;;;3.53;1.10;;;;;;;11.18;100.00;100928.09;5051463;28;20049;-63
2023/12/21 03:42:23;;;;;;;3.67;0.98;;;;;;;11.23;100.00;100914.19;5052586;28;20044;-62
2023/12/21 03:44:50;;;;;;;5.78;0.90;;;;;;;11.41;100.00;100917.88;5034617;28;20052;-62
2023/12/21 03:47:17;;;;;;;5.57;1.08;;;;;;;11.45;100.00;100905.94;5034730;28;20182;-64
2023/12/21 03:49:45;;;;;;;5.70;1.05;;;;;;;11.38;100.00;100922.88;5030198;28;20065;-62
2023/12/21 03:52:12;;;;;;;5.32;1.13;;;;;;;11.37;100.00;100909.41;5014210;28;20149;-61
2023/12/21 03:54:39;;;;;;;3.15;0.80;;;;;;;11.37;100.00;100909.41;5014234;28;20065;-63
2023/12/21 03:57:07;;;;;;;4.13;0.80;;;;;;;11.23;100.00;100890.19;5048151;28;20064;-62
2023/12/21 03:59:35;;;;;;;6.10;0.80;;;;;;;11.31;100.00;100888.63;5033742;28;20073;-61
2023/12/21 04:02:02;;;;;;;4.85;0.73;;;;;;;11.67;100.00;100885.78;5052063;28;20044;-62
2023/12/21 04:04:31;;;;;;;3.25;0.90;;;;;;;11.48;100.00;100874.13;5051738;28;20052;-63
2023/12/21 04:06:58;;;;;;;4.38;1.00;;;;;;;11.28;100.00;100864.41;5033025;28;20064;-63
2023/12/21 04:09:26;;;;;;;6.45;1.02;;;;;;;11.33;100.00;100856.84;5034247;28;20424;-63
2023/12/21 04:11:53;;;;;;;4.43;1.00;;;;;;;11.25;100.00;100846.56;5033708;28;20064;-63
2023/12/21 04:14:21;;;;;;;4.97;0.85;;;;;;;11.22;100.00;100824.34;5033785;28;20053;-63
2023/12/21 04:16:49;;;;;;;4.35;1.08;;;;;;;11.29;100.00;100833.78;5050806;28;20060;-63
2023/12/21 04:19:16;;;;;;;3.33;0.95;;;;;;;11.35;100.00;100829.75;5051653;28;20057;-61
2023/12/21 04:21:44;;;;;;;3.70;0.73;;;;;;;11.21;100.00;100831.78;5034235;28;20041;-63
2023/12/21 04:24:11;;;;;;;4.38;0.90;;;;;;;11.40;100.00;100828.00;5052444;28;20052;-62
2023/12/21 04:26:39;;;;;;;6.03;1.00;;;;;;;11.37;100.00;100834.16;5034279;28;20499;-62
2023/12/21 04:29:07;;;;;;;3.33;0.77;;;;;;;11.37;100.00;100834.97;5051348;28;20052;-61
2023/12/21 04:31:34;;;;;;;4.93;0.82;;;;;;;11.38;100.00;100822.81;5049926;28;20048;-62
2023/12/21 04:34:02;;;;;;;4.22;0.70;;;;;;;11.48;100.00;100824.47;5051607;28;20056;-63
2023/12/21 04:36:29;;;;;;;4.38;0.70;;;;;;;11.49;100.00;100823.34;5033451;28;20060;-61
2023/12/21 04:38:56;;;;;;;3.47;0.50;;;;;;;11.55;100.00;100822.06;5033727;28;20053;-61
2023/12/21 04:41:24;;;;;;;2.53;0.50;;;;;;;11.72;100.00;100816.66;5032882;28;20063;-62
2023/12/21 04:43:51;;;;;;;2.67;0.50;;;;;;;11.84;100.00;100814.94;5017513;28;20044;-61
2023/12/21 04:46:19;;;;;;;4.15;0.70;;;;;;;11.70;100.00;100821.72;5051577;28;20049;-62
2023/12/21 04:48:47;;;;;;;2.80;0.60;;;;;;;11.99;100.00;100806.22;5050843;28;20049;-61
2023/12/21 04:51:15;;;;;;;3.80;0.85;;;;;;;11.85;99.68;100807.47;5033593;28;20057;-61
2023/12/21 04:53:43;;;;;;;2.28;0.45;;;;;;;11.61;100.00;100793.22;5035870;28;20576;-61
2023/12/21 04:56:10;;;;;;;2.50;0.40;;;;;;;11.49;100.00;100802.09;5037213;28;20048;-62
2023/12/21 04:58:38;;;;;;;3.55;0.40;;;;;;;11.54;100.00;100792.88;5054780;28;20068;-62
2023/12/21 05:01:06;;;;;;;3.90;0.77;;;;;;;11.55;100.00;100802.75;5020298;28;20048;-62
2023/12/21 05:03:33;;;;;;;1.92;0.40;;;;;;;11.34;100.00;100803.31;5036410;28;20057;-63
2023/12/21 05:06:01;;;;;;;2.83;0.40;;;;;;;11.34;100.00;100806.09;5054819;28;20083;-62
2023/12/21 05:08:29;;;;;;;3.58;0.57;;;;;;;11.39;100.00;100796.84;5053130;28;20484;-62
2023/12/21 05:10:56;;;;;;;2.55;0.70;;;;;;;11.51;100.00;100783.28;5054369;28;20053;-62
2023/12/21 05:13:24;;;;;;;1.10;0.30;;;;;;;11.39;100.00;100783.06;5054392;28;20053;-63
2023/12/21 05:15:51;;;;;;;0.98;0.35;;;;;;;11.26;100.00;100787.53;5054672;28;20515;-62
2023/12/21 05:18:18;;;;;;;2.22;0.40;;;;;;;11.39;100.00;100774.78;5054584;28;20496;-62
2023/12/21 05:20:45;;;;;;;0.82;0.32;;;;;;;11.47;100.00;100767.69;5054499;28;20072;-62
2023/12/21 05:23:13;;;;;;;1.30;0.47;;;;;;;11.44;100.00;100777.41;5053484;28;20658;-61
2023/12/21 05:25:40;;;;;;;1.42;0.40;;;;;;;11.60;100.00;100792.41;5054552;28;20083;-61
2023/12/21 05:28:12;;;;;;;0.98;0.40;;;;;;;11.49;100.00;100806.81;5053401;28;20053;-64
2023/12/21 05:30:39;;;;;;;1.75;0.50;;;;;;;11.42;100.00;100789.91;5036348;28;20045;-62
2023/12/21 05:33:06;;;;;;;2.80;0.35;;;;;;;11.30;100.00;100779.44;5049905;28;20049;-61
2023/12/21 05:35:35;;;;;;;2.15;0.40;;;;;;;11.17;100.00;100778.44;5053941;28;20057;-61
2023/12/21 05:38:02;;;;;;;2.35;0.40;;;;;;;11.16;100.00;100781.47;5054080;28;20045;-62
2023/12/21 05:40:29;;;;;;;1.90;0.35;;;;;;;11.26;100.00;100782.00;5053847;28;20495;-61
2023/12/21 05:42:57;;;;;;;1.30;0.50;;;;;;;11.21;100.00;100801.44;5035038;28;20079;-61
2023/12/21 05:45:24;;;;;;;1.63;0.40;;;;;;;11.16;100.00;100793.31;5035813;28;20055;-63
2023/12/21 05:47:52;;;;;;;0.80;0.43;;;;;;;11.29;100.00;100780.59;5026585;28;20419;-62
2023/12/21 05:50:19;;;;;;;5.28;0.77;;;;;;;11.50;100.00;100765.13;5053485;28;20137;-62
2023/12/21 05:52:46;;;;;;;2.00;0.45;;;;;;;11.43;100.00;100772.22;5035299;28;20514;-62
2023/12/21 05:55:15;;;;;;;0.80;0.20;;;;;;;11.54;100.00;100774.34;5019426;28;20056;-62
2023/12/21 05:57:43;;;;;;;2.05;0.28;;;;;;;11.34;100.00;100753.69;5035604;28;20049;-61
2023/12/21 06:00:11;;;;;;;0.25;0.22;;;;;;;11.40;100.00;100737.00;5051064;28;20044;-63
2023/12/21 06:02:39;;;;;;;2.35;0.70;;;;;;;11.46;100.00;100732.94;5035957;28;20048;-67
2023/12/21 06:05:07;;;;;;;2.28;0.40;;;;;;;11.49;100.00;100724.84;5014819;28;20523;-62
2023/12/21 06:07:34;;;;;;;1.35;0.35;;;;;;;11.52;100.00;100726.16;5032712;28;20049;-63
2023/12/21 06:10:01;;;;;;;0.40;0.32;;;;;;;11.42;100.00;100727.25;5050451;28;20053;-62
2023/12/21 06:12:29;;;;;;;1.88;0.40;;;;;;;11.44;100.00;100710.41;5053231;28;20686;-61
2023/12/21 06:14:57;;;;;;;0.95;0.32;;;;;;;11.74;100.00;100726.09;5035134;28;20040;-62
2023/12/21 06:17:24;;;;;;;0.90;0.40;;;;;;;11.91;100.00;100732.47;5051847;28;20499;-62
2023/12/21 06:19:51;;;;;;;1.08;0.30;;;;;;;11.90;100.00;100730.88;5052963;28;20081;-63
2023/12/21 06:22:19;;;;;;;1.95;0.15;;;;;;;12.00;100.00;100724.22;5053114;28;20056;-62
2023/12/21 06:24:46;;;;;;;1.13;0.30;;;;;;;11.90;100.00;100728.09;5053015;28;20384;-62
2023/12/21 06:27:14;;;;;;;1.42;0.30;;;;;;;11.79;100.00;100732.28;5017827;28;20504;-63
2023/12/21 06:29:42;;;;;;;1.02;0.30;;;;;;;11.69;100.00;100751.09;5018808;28;20041;-64
2023/12/21 06:32:10;;;;;;;1.23;0.30;;;;;;;11.69;100.00;100746.38;5051968;28;20048;-63
2023/12/21 06:34:37;;;;;;;3.85;0.40;;;;;;;11.72;100.00;100744.91;5034969;28;20053;-62
2023/12/21 06:37:05;;;;;;;2.55;0.55;;;;;;;11.76;100.00;100754.19;5002799;28;20053;-62
2023/12/21 06:39:33;;;;;;;1.38;0.30;;;;;;;11.56;100.00;100749.25;5035181;28;20053;-62
2023/12/21 06:42:01;;;;;;;0.82;0.30;;;;;;;11.34;100.00;100750.94;5035572;28;20060;-63
2023/12/21 06:44:28;;;;;;;0.80;0.40;;;;;;;11.42;100.00;100749.31;5039931;28;20059;-62
2023/12/21 06:46:56;;;;;;;1.63;0.40;;;;;;;11.57;100.00;100753.63;5050081;28;20045;-63
2023/12/21 06:49:24;;;;;;;1.58;0.40;;;;;;;11.51;100.00;100738.31;5036117;28;20059;-63
2023/12/21 06:51:51;;;;;;;1.35;0.50;;;;;;;11.68;100.00;100739.22;5048790;28;20063;-62
2023/12/21 06:54:18;;;;;;;3.95;0.60;;;;;;;11.57;100.00;100748.09;5050800;28;20045;-62
2023/12/21 06:56:46;;;;;;;2.67;0.80;;;;;;;11.53;100.00;100764.47;5052702;28;20053;-62
2023/12/21 06:59:13;;;;;;;0.93;0.30;;;;;;;11.52;100.00;100765.63;5015807;28;20053;-63
2023/12/21 07:01:41;;;;;;;3.97;0.70;;;;;;;11.49;100.00;100760.72;5022533;28;20408;-62
2023/12/21 07:04:08;;;;;;;1.67;0.43;;;;;;;11.55;100.00;100755.88;5031661;28;20044;-62
2023/12/21 07:06:36;;;;;;;1.70;0.30;;;;;;;11.62;100.00;100736.91;5042455;28;20057;-62
2023/12/21 07:09:05;;;;;;;2.83;0.45;;;;;;;11.48;100.00;100761.84;5033651;28;20060;-62
2023/12/21 07:11:33;;;;;;;1.63;0.50;;;;;;;11.43;100.00;100762.00;5050767;28;20057;-62
2023/12/21 07:14:00;;;;;;;4.13;0.30;;;;;;;11.42;100.00;100785.19;5052295;28;20040;-62
2023/12/21 07:16:27;;;;;;;1.75;0.40;;;;;;;11.60;100.00;100775.84;5033818;28;20072;-63
2023/12/21 07:18:55;;;;;;;0.90;0.30;;;;;;;11.77;100.00;100766.88;5034434;28;20045;-64
2023/12/21 07:21:23;;;;;;;1.10;0.30;;;;;;;11.82;100.00;100770.28;5033969;28;20061;-62
2023/12/21 07:23:50;;;;;;;1.25;0.25;;;;;;;11.86;100.00;100767.69;5050993;28;20056;-63
2023/12/21 07:26:20;;;;;;;;;;;;;;;11.87;100.00;100766.56;5034908;28;20060;-62
2023/12/21 07:28:47;;;;;;;1.25;0.32;;;;;;;11.72;100.00;100765.06;5050200;28;19921;-61
2023/12/21 07:31:15;;;;;;;1.90;0.50;;;;;;;11.71;100.00;100763.44;5034292;28;20174;-61
2023/12/21 07:33:43;;;;;;;2.67;0.60;;;;;;;11.82;100.00;100769.47;5034269;28;20060;-61
2023/12/21 07:36:11;;;;;;;2.60;0.40;;;;;;;11.85;100.00;100772.41;5051200;28;20055;-62
2023/12/21 07:38:40;;;;;;;1.38;0.50;;;;;;;11.96;100.00;100765.44;5034226;28;20045;-61
2023/12/21 07:41:07;;;;;;;1.17;0.30;;;;;;;11.84;100.00;100756.16;5016643;28;20503;-63
2023/12/21 07:43:37;;;;;;;1.90;0.50;;;;;;;11.89;100.00;100745.00;5034156;28;20049;-62
2023/12/21 07:46:04;;;;;;;3.53;1.00;;;;;;;11.98;100.00;100743.84;5013451;28;20064;-63
2023/12/21 07:48:35;;;;;;;1.73;0.40;;;;;;;11.96;100.00;100740.59;5040573;28;20052;-63
2023/12/21 07:51:03;;;;;;;2.85;0.75;;;;;;;11.94;100.00;100734.59;5031551;28;20061;-62
2023/12/21 07:53:30;;;;;;;1.27;0.32;;;;;;;12.13;100.00;100746.13;5031867;28;20056;-62
2023/12/21 07:55:57;;;;;;;1.23;0.40;;;;;;;12.05;100.00;100748.88;5031556;28;20058;-62
2023/12/21 07:58:25;;;;;;;1.20;0.32;;;;;;;11.93;100.00;100755.06;5027325;28;20063;-63
2023/12/21 08:00:52;;;;;;;2.67;0.43;;;;;;;11.89;100.00;100729.22;5050582;28;20048;-62
2023/12/21 08:03:20;;;;;;;1.92;0.40;;;;;;;12.19;100.00;100727.47;5051893;28;20041;-63
2023/12/21 08:05:47;;;;;;;2.35;0.70;;;;;;;12.13;100.00;100728.78;5042225;28;20058;-63
2023/12/21 08:08:15;;;;;;;4.63;0.75;;;;;;;12.13;100.00;100721.28;5033911;28;20065;-62
2023/12/21 08:10:42;;;;;;;3.35;0.50;;;;;;;12.10;100.00;100707.34;5033770;28;20447;-62
2023/12/21 08:13:10;;;;;;;2.45;0.52;;;;;;;12.19;100.00;100706.19;5051406;28;20503;-64
2023/12/21 08:15:37;;;;;;;4.57;0.52;;;;;;;11.92;100.00;100716.72;5034214;28;20053;-63
2023/12/21 08:18:04;;;;;;;2.55;0.82;;;;;;;12.02;100.00;100699.84;5051883;28;20053;-63
2023/12/21 08:20:34;;;;;;;2.15;0.30;;;;;;;11.98;100.00;100688.66;5015203;28;20053;-63
2023/12/21 08:23:03;;;;;;;0.52;0.40;;;;;;;11.95;100.00;100689.31;5031820;28;20056;-62
2023/12/21 08:25:31;;;;;;;1.02;0.40;;;;;;;12.12;100.00;100697.59;5031607;28;20053;-62
2023/12/21 08:27:59;;;;;;;1.52;0.55;;;;;;;12.12;100.00;100696.75;5035150;28;20046;-63
2023/12/21 08:30:29;;;;;;;0.85;0.32;;;;;;;12.00;100.00;100691.91;5002370;28;20041;-61
2023/12/21 08:33:00;;;;;;;2.00;0.73;;;;;;;12.23;100.00;100692.56;5052104;28;20048;-62
2023/12/21 08:35:27;;;;;;;2.85;0.70;;;;;;;12.33;100.00;100689.47;5055143;28;20041;-62
2023/12/21 08:37:56;;;;;;;1.38;0.50;;;;;;;12.44;99.83;100693.53;5036510;28;20064;-62
2023/12/21 08:40:24;;;;;;;1.33;0.40;;;;;;;12.44;100.00;100682.47;5055279;28;20049;-64
2023/12/21 08:42:51;;;;;;;1.02;0.50;;;;;;;12.41;100.00;100685.91;5037765;28;20049;-63
2023/12/21 08:45:19;;;;;;;2.60;0.40;;;;;;;12.22;100.00;100702.78;5037618;28;20496;-63
2023/12/21 08:47:46;;;;;;;1.95;0.50;;;;;;;12.26;100.00;100706.53;5036843;28;20055;-63
2023/12/21 08:50:14;;;;;;;1.25;0.30;;;;;;;12.41;100.00;100716.28;5037372;28;20056;-64
2023/12/21 08:52:42;;;;;;;1.27;0.40;;;;;;;12.20;100.00;100727.16;5054489;28;20546;-63
2023/12/21 08:55:10;;;;;;;1.90;0.60;;;;;;;12.07;100.00;100708.78;5020113;28;20049;-63
2023/12/21 08:57:38;;;;;;;0.80;0.30;;;;;;;12.11;100.00;100709.78;5053175;28;20056;-63
2023/12/21 09:00:06;;;;;;;3.05;0.80;;;;;;;12.25;100.00;100699.41;5037481;28;20057;-66
2023/12/21 09:02:35;;;;;;;1.80;0.50;;;;;;;12.18;100.00;100707.34;5053552;28;20498;-63
2023/12/21 09:05:02;;;;;;;1.48;0.40;;;;;;;12.02;100.00;100708.13;5054571;28;20060;-64
2023/12/21 09:07:30;;;;;;;1.52;0.40;;;;;;;12.04;100.00;100723.25;5037070;28;20053;-62
2023/12/21 09:09:59;;;;;;;0.85;0.47;;;;;;;12.12;100.00;100716.09;5054318;28;20053;-62
2023/12/21 09:12:26;;;;;;;0.75;0.40;;;;;;;11.99;100.00;100722.59;5020457;28;20057;-62
2023/12/21 09:14:54;;;;;;;1.42;0.60;;;;;;;11.82;100.00;100717.84;5028864;28;20053;-64
2023/12/21 09:17:22;;;;;;;1.35;0.40;;;;;;;11.87;100.00;100714.13;5016806;28;20057;-62
2023/12/21 09:19:49;;;;;;;4.50;0.52;;;;;;;12.00;100.00;100729.72;5044680;28;20053;-63
2023/12/21 09:22:17;;;;;;;1.63;0.40;;;;;;;11.84;100.00;100714.75;5053198;28;20535;-62
2023/12/21 09:24:44;;;;;;;0.77;0.35;;;;;;;12.03;100.00;100734.63;5052873;28;20049;-63
2023/12/21 09:27:14;;;;;;;2.45;0.50;;;;;;;11.98;100.00;100720.94;5035842;28;20563;-63
2023/12/21 09:29:44;;;;;;;0.70;0.45;;;;;;;12.07;100.00;100725.38;5036420;28;20053;-63
2023/12/21 09:32:11;;;;;;;0.77;0.50;;;;;;;12.13;100.00;100720.50;5046012;28;20052;-63
2023/12/21 09:34:41;;;;;;;1.75;0.68;;;;;;;12.31;100.00;100720.19;5036108;28;20392;-63
2023/12/21 09:37:14;;;;;;;1.10;0.50;;;;;;;12.37;100.00;100713.38;5020641;28;20463;-63
2023/12/21 09:39:47;;;;;;;1.90;0.50;;;;;;;12.40;100.00;100714.66;5052947;28;20067;-64
2023/12/21 09:42:15;;;;;;;1.45;0.55;;;;;;;12.59;100.00;100720.66;5053092;28;20055;-63
2023/12/21 09:44:46;;;;;;;3.35;0.60;;;;;;;12.56;100.00;100718.53;5053664;28;20053;-63
2023/12/21 09:47:16;;;;;;;4.57;0.57;;;;;;;12.53;100.00;100705.38;5040530;28;20055;-62
2023/12/21 09:49:44;;;;;;;5.00;0.50;;;;;;;12.32;100.00;100693.38;5035476;28;20056;-61
2023/12/21 09:52:12;;;;;;;2.38;0.80;;;;;;;12.36;100.00;100688.84;5019251;28;20049;-61
2023/12/21 09:54:40;;;;;;;3.88;0.85;;;;;;;12.36;100.00;100702.66;5018538;28;20049;-63
2023/12/21 09:57:08;;;;;;;2.33;0.90;;;;;;;12.28;100.00;100695.97;5038269;28;20053;-62
2023/12/21 09:59:36;;;;;;;2.33;1.05;;;;;;;12.41;100.00;100685.91;5016048;28;20078;-62
2023/12/21 10:02:11;;;;;;;1.70;0.73;;;;;;;12.37;100.00;100680.22;5032990;28;20050;-62
2023/12/21 10:04:45;;;;;;;1.38;0.70;;;;;;;12.34;100.00;100696.63;5042990;28;20052;-64
2023/12/21 10:07:14;;;;;;;3.65;0.70;;;;;;;12.29;100.00;100705.09;5053358;28;20056;-62
2023/12/21 10:09:41;;;;;;;1.77;0.90;;;;;;;12.36;100.00;100695.16;5036133;28;20072;-63
2023/12/21 10:12:09;;;;;;;3.92;1.00;;;;;;;12.42;100.00;100679.22;5053346;28;20044;-63
2023/12/21 10:14:36;;;;;;;2.58;1.25;;;;;;;12.35;100.00;100679.72;5018276;28;20060;-62
2023/12/21 10:17:09;;;;;;;3.10;0.98;;;;;;;12.30;100.00;100681.84;5053937;28;20047;-64
2023/12/21 10:19:37;;;;;;;1.83;0.80;;;;;;;12.48;100.00;100686.22;5043415;28;20041;-63
2023/12/21 10:22:05;;;;;;;2.13;0.98;;;;;;;12.55;100.00;100669.97;5016425;28;20050;-63
2023/12/21 10:24:32;;;;;;;2.03;0.80;;;;;;;12.47;100.00;100690.09;5032877;28;20570;-62
2023/12/21 10:27:00;;;;;;;6.10;2.00;;;;;;;12.31;100.00;100683.44;5015690;28;20050;-64
2023/12/21 10:29:28;;;;;;;4.32;1.65;;;;;;;12.37;100.00;100673.88;5020267;28;20057;-61
2023/12/21 10:31:56;;;;;;;2.90;0.93;;;;;;;12.50;100.00;100667.34;5019226;28;20048;-62
2023/12/21 10:34:26;;;;;;;3.45;1.23;;;;;;;12.46;100.00;100669.16;5053036;28;20055;-61
2023/12/21 10:37:01;;;;;;;4.30;1.20;;;;;;;12.48;100.00;100668.81;5053183;28;20625;-64
2023/12/21 10:39:30;;;;;;;6.03;1.27;;;;;;;12.67;100.00;100648.00;5035065;28;20056;-63
2023/12/21 10:41:58;;;;;;;6.50;1.00;;;;;;;12.46;100.00;100667.19;5052534;28;20219;-62
2023/12/21 10:44:25;;;;;;;1.52;0.70;;;;;;;12.33;100.00;100676.47;5051722;28;20041;-62
2023/12/21 10:46:53;;;;;;;3.92;1.33;;;;;;;12.38;100.00;100681.81;5020284;28;20045;-63
2023/12/21 10:49:21;;;;;;;5.65;1.30;;;;;;;12.52;100.00;100683.63;5051620;28;20056;-63
2023/12/21 10:51:49;;;;;;;6.50;1.25;;;;;;;12.63;100.00;100684.88;5047053;28;20053;-63
2023/12/21 10:54:18;;;;;;;5.13;1.20;;;;;;;12.26;100.00;100684.44;5031559;28;20049;-62
2023/12/21 10:56:46;;;;;;;9.65;1.92;;;;;;;12.25;100.00;100676.47;5013733;28;20045;-62
2023/12/21 10:59:19;;;;;;;7.88;2.17;;;;;;;12.40;100.00;100668.50;4995470;28;20062;-63
2023/12/21 11:01:48;;;;;;;7.80;1.77;;;;;;;12.19;100.00;100672.25;5016414;28;20049;-62
2023/12/21 11:04:16;;;;;;;8.38;1.23;;;;;;;12.25;100.00;100635.06;5015231;28;20436;-62
2023/12/21 11:06:44;;;;;;;8.25;1.60;;;;;;;12.27;100.00;100644.63;5031034;28;20045;-63
2023/12/21 11:09:18;;;;;;;7.10;1.75;;;;;;;12.16;100.00;100648.06;5030506;28;20053;-63
2023/12/21 11:11:46;;;;;;;12.18;2.10;;;;;;;12.23;100.00;100642.84;5014892;28;20042;-62
2023/12/21 11:14:14;;;;;;;9.55;2.25;;;;;;;12.20;100.00;100629.72;5032771;28;20048;-62
2023/12/21 11:17:01;;;;;;;12.30;3.10;;;;;;;12.05;100.00;100619.13;5031906;28;20601;-63
2023/12/21 11:19:32;;;;;;;12.52;2.47;;;;;;;12.11;100.00;100610.38;5022187;28;20065;-61